METAR Data
IDs: Format: Raw Decoded Include TAF

Data at: 1524 UTC 18 Aug 2019

PAMH 181456Z AUTO 00000KT 10SM CLR 06/03 A3037 RMK AO2 SLP036 T00610028 58010
PAMH 181356Z AUTO 00000KT 10SM CLR 07/03 A3038 RMK AO2 SLP039 T00670028
PAMH 181256Z AUTO 00000KT 10SM CLR 07/03 A3040 RMK AO2 SLP046 T00670033
PAMH 181156Z AUTO 00000KT 10SM CLR 08/02 A3040 RMK AO2 SLP046 T00780022 10100 20072 56011
PAMH 181056Z AUTO 00000KT 10SM CLR 08/03 A3041 RMK AO2 SLP048 T00780033
PAMH 180956Z AUTO 00000KT 10SM CLR 08/04 A3041 RMK AO2 SLP050 T00780039
PAMH 180856Z AUTO 00000KT 10SM CLR 08/04 A3043 RMK AO2 SLP057 T00780039 401670061 58008
PAMH 180756Z AUTO 00000KT 10SM CLR 08/05 A3044 RMK AO2 SLP060 T00780050
PAMH 180656Z AUTO 00000KT 10SM CLR 09/06 A3046 RMK AO2 SLP064 T00890056
PAMH 180556Z AUTO 00000KT 10SM SCT055 10/07 A3046 RMK AO2 SLP065 T01000072 10167 20100 58005
PAMH 180456Z AUTO 00000KT 10SM BKN060 12/08 A3047 RMK AO2 SLP068 T01170083
PAMH 180356Z AUTO VRB03KT 10SM SCT060 14/07 A3047 RMK AO2 SLP070 T01390067
PAMH 180256Z AUTO VRB03KT 10SM FEW055 15/07 A3047 RMK AO2 SLP070 T01500067 58005
PAMH 180156Z AUTO 00000KT 10SM CLR 15/06 A3048 RMK AO2 SLP073 T01500061
PAMH 180056Z AUTO VRB04KT 10SM FEW044 16/07 A3048 RMK AO2 SLP073 T01610067
PAMH 172356Z AUTO VRB03KT 10SM BKN040 16/07 A3049 RMK AO2 SLP075 T01610072 10161 20106 58006
PAMH 172256Z AUTO VRB03KT 10SM CLR 16/08 A3049 RMK AO2 SLP077 T01610083
PAMH 172156Z AUTO 00000KT 10SM BKN037 16/08 A3050 RMK AO2 SLP079 T01560083
PAMH 172056Z AUTO VRB03KT 10SM CLR 14/07 A3050 RMK AO2 SLP081 T01440067 51006
PAMH 171956Z AUTO 00000KT 10SM BKN030 13/07 A3050 RMK AO2 SLP080 T01280067
PAMH 171856Z AUTO VRB03KT 10SM CLR 13/07 A3049 RMK AO2 SLP077 T01280072
PAMH 171756Z AUTO 00000KT 10SM CLR 11/07 A3048 RMK AO2 SLP074 T01060067 10106 20061 51009
PAMH 171656Z AUTO 00000KT 10SM OVC035 09/06 A3048 RMK AO2 SLP072 T00940061
PAMH 171556Z AUTO 00000KT 10SM CLR 07/05 A3047 RMK AO2 SLP069 T00720050
PAMH 171456Z AUTO 00000KT 10SM CLR 07/05 A3046 RMK AO2 SLP065 T00670050 53011
PAMH 171356Z AUTO 00000KT 10SM BKN038 06/06 A3045 RMK AO2 SLP062 T00610056
PAMH 171256Z AUTO 00000KT 10SM OVC040 08/06 A3043 RMK AO2 SLP056 T00780056
PAMH 171156Z AUTO 00000KT 10SM OVC040 07/06 A3042 RMK AO2 SLP054 70018 T00720061 10083 20067 51008
PAMH 171056Z AUTO 00000KT 10SM OVC040 08/06 A3042 RMK AO2 SLP051 T00780061
PAMH 170956Z AUTO VRB03KT 10SM OVC044 08/06 A3041 RMK AO2 SLP050 T00780056
PAMH 170856Z AUTO 00000KT 10SM BKN044 08/05 A3040 RMK AO2 SLP046 T00780050 401330067 53024
PAMH 170756Z AUTO VRB03KT 10SM CLR 07/04 A3037 RMK AO2 SLP036 T00720044
PAMH 170656Z AUTO VRB03KT 10SM CLR 07/05 A3034 RMK AO2 SLP026 T00720050
PAMH 170556Z AUTO 00000KT 10SM CLR 08/07 A3033 RMK AO2 SLP022 60009 T00830067 10133 20083 53016
PAMH 170456Z AUTO VRB03KT 10SM FEW041 OVC050 09/08 A3029 RMK AO2 RAB05E40 SLP010 P0001 T00940078
PAMH 170356Z AUTO VRB06KT 10SM FEW010 OVC036 10/08 A3028 RMK AO2 RAE26 SLP005 P0003 T01000083
PAMH 170354Z AUTO VRB04KT 10SM FEW010 SCT016 OVC036 10/08 A3028 RMK AO2 RAE26 P0003
PAMH 170331Z AUTO VRB04KT 10SM SCT008 BKN015 OVC034 11/09 A3027 RMK AO2 RAE26 P0003